METAR Data
IDs: Format: Raw Decoded Include TAF

Data at: 2025 UTC 14 Dec 2018

KORG 142015Z AUTO 28010G16KT 10SM OVC014 10/09 A2988 RMK AO2 T01040091
KORG 141955Z AUTO 29009G15KT 10SM OVC014 11/09 A2988 RMK AO2 T01060090
KORG 141935Z AUTO 26007KT 230V290 10SM OVC014 11/09 A2987 RMK AO2 T01060091
KORG 141915Z AUTO 27005KT 10/09 A2987 RMK AO2 T01020093 PWINO
KORG 141855Z AUTO 25004KT A2987 RMK AO2 PWINO
KORG 141835Z AUTO 10/09 RMK AO2 T01000092 PWINO TSNO
KORG 141815Z AUTO 24005KT 10SM OVC009 10/09 A2987 RMK AO2 P0004 T00960091
KORG 141755Z AUTO 24006KT 10SM OVC009 09/09 A2989 RMK AO2 P0004 60004 T00920089 10092 20081
KORG 141735Z AUTO 25007KT TS OVC007 09/09 A2990 RMK AO2 LTG DSNT ALQS T00880088
KORG 141715Z AUTO 24005KT 7SM OVC007 09/09 A2991 RMK AO2 T00860085
KORG 141655Z AUTO 26007KT 5SM BR OVC009 09/09 A2992 RMK AO2 T00860085
KORG 141635Z AUTO 26004KT 7SM -DZ BKN009 OVC014 09/08 A2992 RMK AO2 T00850083
KORG 141615Z AUTO 25006KT 3SM DZ BKN009 OVC018 08/08 A2992 RMK AO2 T00820078
KORG 141555Z AUTO 26009G16KT 7SM OVC017 09/07 A2992 RMK AO2 T00850072
KORG 141535Z AUTO 27007G15KT 10SM BKN017 OVC023 09/07 A2991 RMK AO2 T00920068
KORG 141515Z AUTO 24010KT 10SM OVC019 09/07 A2991 RMK AO2 T00880065
KORG 141455Z AUTO 25009G16KT 10SM BKN021 OVC026 09/06 A2991 RMK AO2 T00870064
KORG 141435Z AUTO 26004KT 10SM BKN019 OVC028 09/06 A2990 RMK AO2 T00900063
KORG 141415Z AUTO 26009G15KT 10SM OVC021 09/06 A2990 RMK AO2 T00870060
KORG 141355Z AUTO 26008G14KT 10SM OVC021 09/06 A2990 RMK AO2 T00870062
KORG 141335Z AUTO 24013G20KT 10SM BKN021 BKN042 09/06 A2989 RMK AO2 T00900062
KORG 141315Z AUTO 25008KT 10SM SCT025 BKN042 09/06 A2987 RMK AO2 T00850060
KORG 141255Z AUTO 24008G17KT 10SM BKN025 BKN036 09/06 A2986 RMK AO2 LTG DSNT N T00850057
KORG 141235Z AUTO 24010KT 10SM SCT027 OVC036 09/06 A2985 RMK AO2 T00870055
KORG 141215Z AUTO 25007KT 10SM OVC033 09/05 A2983 RMK AO2 LTG DSNT N T00890051
KORG 141155Z AUTO 25009G14KT 200V280 10SM OVC031 09/05 A2982 RMK AO2 T00900051 10142 20078
KORG 141135Z AUTO 26006G15KT 10SM BKN027 OVC032 09/06 A2982 RMK AO2 T00900057
KORG 141115Z AUTO 24005KT 10SM BKN027 OVC036 09/06 A2982 RMK AO2 T00900060
KORG 141055Z AUTO 24003KT 10SM OVC036 09/06 A2983 RMK AO2 T00850061
KORG 141035Z AUTO 23004KT 10SM OVC038 08/06 A2984 RMK AO2 T00830061
KORG 141015Z AUTO 23003KT 10SM BKN040 08/06 A2984 RMK AO2 T00790058
KORG 140955Z AUTO 24004KT 10SM SCT038 08/05 A2984 RMK AO2 T00810051
KORG 140935Z AUTO 24004KT 10SM CLR 08/05 A2983 RMK AO2 T00830050
KORG 140915Z AUTO 28006KT 10SM SCT028 08/05 A2982 RMK AO2 LTG DSNT N T00820053
KORG 140855Z AUTO 27006KT 10SM CLR 09/05 A2983 RMK AO2 LTG DSNT N T00860054
KORG 140835Z AUTO 26004KT 10SM CLR 09/05 A2984 RMK AO2 T00870052
KORG 140815Z AUTO 26007G14KT 10SM CLR 09/05 A2983 RMK AO2 T00920053
KORG 140755Z AUTO 27010G19KT 10SM CLR 10/06 A2983 RMK AO2 T00970057
KORG 140735Z AUTO 26006G14KT 10SM CLR 10/07 A2982 RMK AO2 T01020065
KORG 140715Z AUTO 26006KT 10SM CLR 11/07 A2981 RMK AO2 T01050072
KORG 140655Z AUTO 27006KT 10SM CLR 11/08 A2981 RMK AO2 T01130078
KORG 140635Z AUTO 28006KT 10SM CLR 12/08 A2980 RMK AO2 T01210081
KORG 140615Z AUTO 28007G17KT 10SM CLR 13/08 A2980 RMK AO2 T01280080
KORG 140555Z AUTO 26008KT 10SM CLR 14/09 A2980 RMK AO2 T01440092 10186 20144 402250144
KORG 140535Z AUTO 25007KT 230V290 10SM CLR 15/10 A2978 RMK AO2 T01450098
KORG 140515Z AUTO 24009G17KT 10SM CLR 16/10 A2977 RMK AO2 T01550099
KORG 140455Z AUTO 23008KT 10SM CLR 16/15 A2977 RMK AO2 T01560150
KORG 140435Z AUTO 23004KT 10SM CLR 16/16 A2976 RMK AO2 T01550155
KORG 140415Z AUTO 21003KT 10SM CLR 15/15 A2976 RMK AO2 T01530153
KORG 140355Z AUTO 23003KT 10SM CLR 17/17 A2976 RMK AO2 T01680165
KORG 140335Z AUTO 24003KT 10SM SCT120 17/17 A2977 RMK AO2 T01690169
KORG 140315Z AUTO 22004KT 7SM BKN120 16/16 A2977 RMK AO2 T01550155
KORG 140255Z AUTO 00000KT 7SM SCT100 OVC120 16/16 A2976 RMK AO2 T01550155
KORG 140235Z AUTO 00000KT 7SM OVC120 16/16 A2977 RMK AO2 LTG DSNT E T01570157
KORG 140215Z AUTO 19004KT 7SM SCT120 16/16 A2977 RMK AO2 T01570157
KORG 140155Z AUTO 00000KT 7SM CLR 16/16 A2976 RMK AO2 LTG DSNT SE T01590159
KORG 140135Z AUTO 00000KT 10SM CLR 16/16 A2975 RMK AO2 LTG DSNT N T01610161
KORG 140115Z AUTO 21003KT 10SM CLR 17/17 A2975 RMK AO2 LTG DSNT SE T01690168
KORG 140055Z AUTO 18005KT 10SM CLR 18/18 A2976 RMK AO2 T01800176
KORG 140035Z AUTO 21004KT 10SM SCT016 18/17 A2976 RMK AO2 T01810172
KORG 140015Z AUTO 22006KT 10SM CLR 18/17 A2974 RMK AO2 T01800170
KORG 132355Z AUTO 20007KT 10SM BKN024 19/17 A2974 RMK AO2 LTG DSNT S T01870170 10225 20187
KORG 132335Z AUTO 20004KT 10SM BKN028 BKN035 OVC040 20/17 A2974 RMK AO2 LTG DSNT N T01960171
KORG 132315Z AUTO 21007KT 10SM SCT029 BKN036 20/17 A2974 RMK AO2 T02030172
KORG 132255Z AUTO 23011KT 10SM BKN034 21/17 A2974 RMK AO2 T02050171
KORG 132235Z AUTO 21007KT 10SM SCT034 BKN042 21/17 A2974 RMK AO2 T02050170
KORG 132215Z AUTO 21009KT 10SM BKN039 21/17 A2973 RMK AO2 T02100171
KORG 132155Z AUTO 20009G15KT 10SM BKN037 BKN043 22/17 A2972 RMK AO2 T02150171
KORG 132135Z AUTO 21005KT 10SM SCT036 SCT044 22/17 A2973 RMK AO2 T02210174
KORG 132115Z AUTO 19006KT 10SM BKN050 22/17 A2973 RMK AO2 T02220173
KORG 132055Z AUTO 21008KT 10SM BKN050 22/18 A2973 RMK AO2 T02150176
KORG 132035Z AUTO 20011G16KT 10SM SCT050 22/17 A2972 RMK AO2 LTG DSNT NW T02210171
KORG 132015Z AUTO 20010KT 10SM BKN055 22/18 A2972 RMK AO2 T02190176
KORG 131955Z AUTO 22008KT 10SM BKN055 22/18 A2973 RMK AO2 T02150181
KORG 131935Z AUTO 20009G17KT 10SM BKN055 21/18 A2974 RMK AO2 LTG DSNT NW T02060181
KORG 131915Z AUTO 20013G21KT 10SM SCT047 SCT055 21/18 A2975 RMK AO2 T02100182
KORG 131855Z AUTO 20013G21KT 10SM CLR 21/18 A2975 RMK AO2 T02110182
KORG 131835Z AUTO 20012G19KT 10SM CLR 21/18 A2976 RMK AO2 T02100183
KORG 131815Z AUTO 21014G19KT 10SM SCT055 SCT070 20/18 A2977 RMK AO2 T02040182
KORG 131755Z AUTO 20011G17KT 7SM SCT010 SCT047 BKN060 20/19 A2978 RMK AO2 T01990186 10199 20164
KORG 131735Z AUTO 22008KT 7SM BKN010 20/19 A2980 RMK AO2 T01950193
KORG 131715Z AUTO 19007KT 5SM BR OVC012 19/19 A2981 RMK AO2 T01860186
KORG 131655Z AUTO 17004KT 7SM BKN014 OVC021 18/18 A2982 RMK AO2 T01800180
KORG 131635Z AUTO 17004KT 7SM -RA SCT014 BKN023 OVC038 18/18 A2983 RMK AO2 T01800180
KORG 131615Z AUTO 16005KT 5SM -RA BKN014 BKN023 OVC055 18/18 A2983 RMK AO2 T01750175
KORG 131555Z AUTO 16005KT 10SM BKN014 OVC025 17/17 A2985 RMK AO2 T01730173
KORG 131535Z AUTO 13007KT 10SM SCT025 BKN030 OVC065 17/17 A2984 RMK AO2 T01720172
KORG 131515Z AUTO 14007KT 5SM -RA SCT027 BKN060 OVC100 17/17 A2984 RMK AO2 T01700170
KORG 131455Z AUTO 13003KT 10SM DZ SCT026 BKN080 OVC100 17/17 A2985 RMK AO2 T01670167
KORG 131435Z AUTO 13004KT 10SM RA SCT028 BKN048 OVC110 17/17 A2985 RMK AO2 T01660166
KORG 131415Z AUTO 16005KT 10SM -RA SCT080 OVC100 16/16 A2985 RMK AO2 T01640164
KORG 131355Z AUTO 15009G14KT 5SM -RA SCT005 BKN050 OVC100 17/17 A2984 RMK AO2 T01660166
KORG 131335Z AUTO 18011G19KT 4SM RA BKN005 OVC012 17/17 A2986 RMK AO2 T01700170
KORG 131315Z AUTO 16007KT 4SM RA BKN005 OVC012 17/17 A2985 RMK AO2 T01700170
KORG 131255Z AUTO 18004KT 4SM +RA BKN005 OVC011 17/17 A2986 RMK AO2 LTG DSNT N T01700170
KORG 131235Z AUTO 17003KT 2 1/2SM +RA SCT005 BKN011 OVC016 17/17 A2985 RMK AO2 LTG DSNT N NE AND S T01670167
KORG 131215Z AUTO 08006KT 7SM RA BKN019 OVC025 17/17 A2983 RMK AO2 LTG DSNT NE T01660166
KORG 131155Z AUTO 09007KT 2 1/2SM +VCTSRA SCT016 BKN023 OVC034 17/17 A2983 RMK AO2 VIS 2V3 LTG DSNT N AND NE T01700170 10171 20160
KORG 131135Z AUTO 12006KT 4SM +TSRA SCT016 BKN028 OVC065 17/17 A2984 RMK AO2 LTG DSNT NW THRU SE T01670167
KORG 131115Z AUTO 10006KT 10SM -TSRA OVC065 17/17 A2982 RMK AO2 LTG DSNT NE SW AND NW T01710171
KORG 131055Z AUTO 12010KT 10SM -RA OVC055 17/17 A2981 RMK AO2 LTG DSNT SW THRU NW T01710171
KORG 131035Z AUTO 11008KT 10SM -RA OVC055 17/17 A2981 RMK AO2 LTG DSNT SW THRU NW T01700170
KORG 131015Z AUTO 11006KT 10SM VCTS OVC055 17/17 A2983 RMK AO2 LTG DSNT SW THRU NW T01660166
KORG 130955Z AUTO 12007KT 10SM BKN055 OVC070 17/17 A2983 RMK AO2 T01650165
KORG 130935Z AUTO 13007KT 10SM SCT055 BKN070 BKN080 16/16 A2984 RMK AO2 LTG DSNT W T01630163
KORG 130915Z AUTO 12008KT 10SM BKN070 OVC080 17/17 A2985 RMK AO2 LTG DSNT SW THRU NW T01650165
KORG 130855Z AUTO 12008KT 10SM OVC060 17/17 A2986 RMK AO2 LTG DSNT SW THRU NW T01650165
KORG 130835Z AUTO 11006KT 10SM BKN060 BKN095 16/16 A2988 RMK AO2 LTG DSNT W T01620162